Time;durP1;ratioP1;P1;durP2;ratioP2;P2;SDS_P1;SDS_P2;PMS_P1;PMS_P2;Temp;Humidity;BMP_temperature;BMP_pressure;BME280_temperature;BME280_humidity;BME280_pressure;Samples;Min_cycle;Max_cycle;Signal;HPM_P1;HPM_P2
2023/09/05 00:01:51;;;;;;;5.72;2.00;;;20.00;78.30;;;;;;5031665;28;20053;-82
2023/09/05 00:04:16;;;;;;;4.07;1.50;;;20.00;78.60;;;;;;5031388;28;20480;-82
2023/09/05 00:06:42;;;;;;;4.30;2.10;;;20.10;78.70;;;;;;5031573;28;20045;-83
2023/09/05 00:09:07;;;;;;;6.05;1.73;;;20.00;78.70;;;;;;5031362;28;20022;-83
2023/09/05 00:11:34;;;;;;;4.43;1.90;;;19.80;78.80;;;;;;5031451;28;20456;-83
2023/09/05 00:14:03;;;;;;;4.57;2.15;;;19.90;79.00;;;;;;5031380;28;20025;-82
2023/09/05 00:16:29;;;;;;;4.05;1.77;;;19.80;79.10;;;;;;5031612;28;20070;-82
2023/09/05 00:18:55;;;;;;;3.50;2.05;;;20.00;79.30;;;;;;5030915;28;20032;-82
2023/09/05 00:21:20;;;;;;;3.53;1.55;;;19.90;79.30;;;;;;5030984;28;20050;-82
2023/09/05 00:23:47;;;;;;;4.75;1.73;;;19.90;79.30;;;;;;5031579;28;20037;-82
2023/09/05 00:26:12;;;;;;;4.15;2.00;;;19.90;79.40;;;;;;5031504;28;20476;-83
2023/09/05 00:28:38;;;;;;;4.15;2.20;;;19.90;79.50;;;;;;5031400;28;20040;-83
2023/09/05 00:31:04;;;;;;;4.32;2.20;;;19.90;79.50;;;;;;5031816;28;20030;-83
2023/09/05 00:33:30;;;;;;;4.30;1.90;;;19.80;79.50;;;;;;5031041;28;20021;-83
2023/09/05 00:35:56;;;;;;;4.10;1.70;;;19.80;79.70;;;;;;5031444;28;20472;-82
2023/09/05 00:38:24;;;;;;;3.38;1.83;;;19.80;79.70;;;;;;5033843;28;20439;-82
2023/09/05 00:40:51;;;;;;;4.68;2.00;;;19.80;79.90;;;;;;5035080;28;20049;-82
2023/09/05 00:43:20;;;;;;;3.70;1.42;;;19.80;79.90;;;;;;5034942;28;20034;-82
2023/09/05 00:45:52;;;;;;;3.75;1.83;;;19.70;79.90;;;;;;5034878;28;20045;-83
2023/09/05 00:48:27;;;;;;;3.10;1.77;;;19.70;79.90;;;;;;5035281;28;21018;-83
2023/09/05 00:50:56;;;;;;;4.95;1.63;;;19.70;80.00;;;;;;5035308;28;20423;-82
2023/09/05 00:53:25;;;;;;;3.45;1.55;;;19.70;80.00;;;;;;5035140;28;20502;-83
2023/09/05 00:55:52;;;;;;;3.30;1.52;;;19.70;80.00;;;;;;5013827;28;20035;-83
2023/09/05 00:58:18;;;;;;;3.47;1.83;;;19.70;80.10;;;;;;5014334;28;20021;-83
2023/09/05 01:00:44;;;;;;;3.40;1.27;;;19.70;80.20;;;;;;5014394;28;20054;-82
2023/09/05 01:03:10;;;;;;;3.80;1.70;;;19.70;80.10;;;;;;5014410;28;20062;-83
2023/09/05 01:05:39;;;;;;;4.03;1.70;;;19.70;80.10;;;;;;5014542;28;20025;-83
2023/09/05 01:08:15;;;;;;;4.38;1.65;;;19.60;80.10;;;;;;5014467;28;20053;-83
2023/09/05 01:10:55;;;;;;;3.55;1.60;;;19.60;80.10;;;;;;5014528;28;20026;-82
2023/09/05 01:13:25;;;;;;;3.85;1.50;;;19.60;80.20;;;;;;5014400;28;20030;-81
2023/09/05 01:15:52;;;;;;;2.92;1.35;;;19.50;80.10;;;;;;5014207;28;20052;-81
2023/09/05 01:18:18;;;;;;;3.88;1.33;;;19.50;80.10;;;;;;5014309;28;20114;-82
2023/09/05 01:21:02;;;;;;;3.03;1.58;;;19.40;80.10;;;;;;5014499;28;20113;-82
2023/09/05 01:23:31;;;;;;;;;;;19.40;80.20;;;;;;5014563;28;20042;-82
2023/09/05 01:25:59;;;;;;;3.25;1.35;;;19.40;80.10;;;;;;5014244;28;19909;-81
2023/09/05 01:28:26;;;;;;;3.95;1.60;;;19.40;80.00;;;;;;5014112;28;20489;-81
2023/09/05 01:30:53;;;;;;;3.05;1.50;;;19.30;80.10;;;;;;5014027;28;20475;-80
2023/09/05 01:33:18;;;;;;;3.22;1.70;;;19.30;80.30;;;;;;5014110;28;20488;-82
2023/09/05 01:35:44;;;;;;;3.13;1.67;;;19.20;80.40;;;;;;5013983;28;20030;-82
2023/09/05 01:38:10;;;;;;;3.75;1.67;;;19.20;80.50;;;;;;5013730;28;20033;-80
2023/09/05 01:40:36;;;;;;;4.63;1.80;;;19.10;80.60;;;;;;5014030;28;20034;-81
2023/09/05 01:43:01;;;;;;;3.83;1.70;;;19.20;80.80;;;;;;5013993;28;20076;-82
2023/09/05 01:45:27;;;;;;;5.82;1.90;;;19.10;80.90;;;;;;5013921;28;20072;-82
2023/09/05 01:47:53;;;;;;;4.07;1.70;;;19.10;81.00;;;;;;5014116;28;20022;-82
2023/09/05 01:50:21;;;;;;;4.53;1.67;;;19.00;81.10;;;;;;5013513;28;20120;-82
2023/09/05 01:52:47;;;;;;;3.47;1.52;;;19.00;81.30;;;;;;5013823;28;20026;-82
2023/09/05 01:55:13;;;;;;;4.40;2.20;;;18.90;81.50;;;;;;5014258;28;20484;-82
2023/09/05 01:57:38;;;;;;;3.20;1.17;;;19.00;81.60;;;;;;5013912;28;20026;-82
2023/09/05 02:00:04;;;;;;;4.07;1.63;;;18.90;81.70;;;;;;5014388;28;20029;-82
2023/09/05 02:02:30;;;;;;;3.42;1.52;;;18.90;81.80;;;;;;5014868;28;20030;-82
2023/09/05 02:04:55;;;;;;;2.83;1.52;;;18.90;81.90;;;;;;5013397;28;20042;-82
2023/09/05 02:07:21;;;;;;;3.70;1.63;;;18.80;81.90;;;;;;5013643;28;20503;-82
2023/09/05 02:09:47;;;;;;;4.82;1.85;;;18.80;82.10;;;;;;5013517;28;20030;-82
2023/09/05 02:12:12;;;;;;;4.82;2.05;;;18.80;82.30;;;;;;5013384;28;20022;-82
2023/09/05 02:14:38;;;;;;;3.97;1.77;;;18.80;82.40;;;;;;5013221;28;20465;-82
2023/09/05 02:17:03;;;;;;;4.07;1.95;;;18.70;82.60;;;;;;5013305;28;20034;-82
2023/09/05 02:19:29;;;;;;;3.97;1.70;;;18.70;82.80;;;;;;5013070;28;20026;-82
2023/09/05 02:21:56;;;;;;;3.78;1.58;;;18.70;82.60;;;;;;5012742;28;20050;-82
2023/09/05 02:24:21;;;;;;;3.83;1.90;;;18.80;82.80;;;;;;5012938;28;20504;-82
2023/09/05 02:26:47;;;;;;;4.10;1.88;;;18.60;82.80;;;;;;5012906;28;20361;-82
2023/09/05 02:29:12;;;;;;;5.35;2.03;;;18.60;82.90;;;;;;5012752;28;20022;-82
2023/09/05 02:31:38;;;;;;;5.03;2.35;;;18.60;83.00;;;;;;5012810;28;20029;-82
2023/09/05 02:34:03;;;;;;;3.90;1.70;;;18.60;83.10;;;;;;5011560;28;20042;-82
2023/09/05 02:36:30;;;;;;;6.00;2.13;;;18.60;83.30;;;;;;5012760;28;20473;-82
2023/09/05 02:38:58;;;;;;;3.72;2.08;;;18.50;83.40;;;;;;5012693;28;20416;-82
2023/09/05 02:41:23;;;;;;;4.65;2.10;;;18.50;83.50;;;;;;5012802;28;20025;-82
2023/09/05 02:43:49;;;;;;;5.72;2.15;;;18.40;83.60;;;;;;5012694;28;20469;-82
2023/09/05 02:46:15;;;;;;;3.70;1.52;;;18.50;83.80;;;;;;5012573;28;20034;-82
2023/09/05 02:48:42;;;;;;;3.75;1.95;;;18.60;83.90;;;;;;5012661;28;20037;-82
2023/09/05 02:51:09;;;;;;;3.50;1.90;;;18.40;84.00;;;;;;5012664;28;20041;-82
2023/09/05 02:53:35;;;;;;;4.85;2.00;;;18.30;84.00;;;;;;5012393;28;20562;-82
2023/09/05 02:56:00;;;;;;;3.97;1.85;;;18.40;84.20;;;;;;5012560;28;20121;-82
2023/09/05 02:58:28;;;;;;;4.80;1.77;;;18.40;84.20;;;;;;5010924;28;20116;-82
2023/09/05 03:01:04;;;;;;;3.53;1.80;;;18.40;84.30;;;;;;5010513;28;20026;-82
2023/09/05 03:03:30;;;;;;;3.13;1.48;;;18.40;84.40;;;;;;5012338;28;20485;-82
2023/09/05 03:05:57;;;;;;;4.40;1.98;;;18.40;84.40;;;;;;5012292;28;20053;-82
2023/09/05 03:08:23;;;;;;;3.03;1.52;;;18.20;84.40;;;;;;5012359;28;20077;-82
2023/09/05 03:10:50;;;;;;;4.05;1.90;;;18.20;84.60;;;;;;5012367;28;20500;-83
2023/09/05 03:13:16;;;;;;;4.88;1.77;;;18.20;84.60;;;;;;5012243;28;20022;-83
2023/09/05 03:15:42;;;;;;;4.57;2.00;;;18.20;84.80;;;;;;5012370;28;20018;-82
2023/09/05 03:18:07;;;;;;;3.53;1.85;;;18.20;84.90;;;;;;5012170;28;20480;-82
2023/09/05 03:20:33;;;;;;;3.90;2.20;;;18.30;85.00;;;;;;5012013;28;20373;-82
2023/09/05 03:22:58;;;;;;;4.60;2.30;;;18.20;85.10;;;;;;5011858;28;20413;-83
2023/09/05 03:25:24;;;;;;;4.30;1.92;;;18.20;85.20;;;;;;5011947;28;20108;-82
2023/09/05 03:27:50;;;;;;;7.82;2.13;;;18.10;85.20;;;;;;5011897;28;20623;-82
2023/09/05 03:30:15;;;;;;;6.90;2.17;;;18.10;85.40;;;;;;5011936;28;20029;-83
2023/09/05 03:32:41;;;;;;;4.22;1.90;;;18.10;85.50;;;;;;5011920;28;20123;-82
2023/09/05 03:35:07;;;;;;;5.57;2.10;;;18.10;85.60;;;;;;5011945;28;20029;-82
2023/09/05 03:37:32;;;;;;;4.65;1.73;;;18.10;85.70;;;;;;5011921;28;20326;-83
2023/09/05 03:39:58;;;;;;;4.93;1.92;;;18.10;85.70;;;;;;5011833;28;20038;-82
2023/09/05 03:42:23;;;;;;;4.03;2.03;;;18.10;85.80;;;;;;5011831;28;20030;-82
2023/09/05 03:44:49;;;;;;;4.30;2.00;;;18.00;85.90;;;;;;5011632;28;20036;-83
2023/09/05 03:47:14;;;;;;;4.15;1.95;;;18.00;85.90;;;;;;5011687;28;20040;-83
2023/09/05 03:49:40;;;;;;;3.85;2.10;;;18.00;86.00;;;;;;5011889;28;20064;-82
2023/09/05 03:52:06;;;;;;;5.22;2.50;;;18.00;86.10;;;;;;5011687;28;20269;-82
2023/09/05 03:54:31;;;;;;;4.93;2.40;;;18.00;86.30;;;;;;5011789;28;20396;-82
2023/09/05 03:56:57;;;;;;;5.05;2.35;;;18.00;86.30;;;;;;5011641;28;20080;-82
2023/09/05 03:59:22;;;;;;;7.80;2.95;;;18.00;86.40;;;;;;5011603;28;20060;-83
2023/09/05 04:01:51;;;;;;;6.95;2.67;;;18.00;86.50;;;;;;5011679;28;20026;-82
2023/09/05 04:04:17;;;;;;;4.38;2.78;;;18.00;86.60;;;;;;5011563;28;20088;-82
2023/09/05 04:06:42;;;;;;;6.32;2.35;;;17.90;86.60;;;;;;5011507;28;20030;-82
2023/09/05 04:09:08;;;;;;;4.55;2.45;;;17.90;86.60;;;;;;5011666;28;20037;-83
2023/09/05 04:11:34;;;;;;;7.70;2.60;;;17.90;86.70;;;;;;5011497;28;20042;-82
2023/09/05 04:13:59;;;;;;;4.22;2.33;;;17.90;86.70;;;;;;5015155;28;20037;-83
2023/09/05 04:16:25;;;;;;;5.38;3.05;;;17.90;86.70;;;;;;5015391;28;20080;-82
2023/09/05 04:18:51;;;;;;;4.53;2.63;;;17.90;86.70;;;;;;5015951;28;20026;-82
2023/09/05 04:21:16;;;;;;;6.78;2.70;;;17.90;86.90;;;;;;5015148;28;20045;-83
2023/09/05 04:23:42;;;;;;;6.07;2.92;;;17.90;86.90;;;;;;5015300;28;20485;-83
2023/09/05 04:26:07;;;;;;;5.05;2.90;;;17.90;86.90;;;;;;5015214;28;20391;-82
2023/09/05 04:28:33;;;;;;;5.90;2.45;;;17.90;87.00;;;;;;5015165;28;20037;-84
2023/09/05 04:31:03;;;;;;;4.78;2.40;;;17.90;87.00;;;;;;5015086;28;20238;-82
2023/09/05 04:33:36;;;;;;;3.67;2.20;;;17.90;87.10;;;;;;5015218;28;20120;-81
2023/09/05 04:36:04;;;;;;;5.47;2.63;;;17.90;87.10;;;;;;5015087;28;20358;-82
2023/09/05 04:38:29;;;;;;;4.80;2.30;;;17.80;87.10;;;;;;5014682;28;20018;-82
2023/09/05 04:41:00;;;;;;;3.65;2.22;;;17.80;87.10;;;;;;5014845;28;20030;-82
2023/09/05 04:43:26;;;;;;;5.38;2.75;;;17.80;87.20;;;;;;5013631;28;20026;-82
2023/09/05 04:45:55;;;;;;;3.85;2.17;;;17.80;87.20;;;;;;5014769;28;20393;-82
2023/09/05 04:48:21;;;;;;;3.75;2.35;;;17.90;87.30;;;;;;5014702;28;20037;-81
2023/09/05 04:50:47;;;;;;;4.75;2.72;;;17.80;87.30;;;;;;5014670;28;20026;-81
2023/09/05 04:53:12;;;;;;;5.28;3.17;;;17.80;87.30;;;;;;5014791;28;20125;-82
2023/09/05 04:55:40;;;;;;;4.07;2.03;;;17.80;87.40;;;;;;5022536;28;20033;-82
2023/09/05 04:58:06;;;;;;;5.30;2.40;;;17.80;87.40;;;;;;5017299;28;20289;-82
2023/09/05 05:00:31;;;;;;;5.68;2.38;;;17.80;87.40;;;;;;5021046;28;20064;-82
2023/09/05 05:02:58;;;;;;;4.60;2.17;;;17.80;87.40;;;;;;5034362;28;20057;-82
2023/09/05 05:05:23;;;;;;;3.80;1.83;;;17.70;87.40;;;;;;5034320;28;20404;-82
2023/09/05 05:07:49;;;;;;;5.40;2.70;;;17.70;87.40;;;;;;5034484;28;20029;-82
2023/09/05 05:10:15;;;;;;;6.90;2.42;;;17.70;87.50;;;;;;5024996;28;20033;-82
2023/09/05 05:12:41;;;;;;;5.55;2.92;;;17.70;87.50;;;;;;5017751;28;20022;-82
2023/09/05 05:15:07;;;;;;;6.10;2.67;;;17.80;87.50;;;;;;5026138;28;20017;-82
2023/09/05 05:17:34;;;;;;;4.45;2.17;;;17.80;87.60;;;;;;5026951;28;20269;-82
2023/09/05 05:19:59;;;;;;;5.20;2.20;;;17.90;87.60;;;;;;5032323;28;20025;-82
2023/09/05 05:22:25;;;;;;;4.25;2.47;;;17.80;87.60;;;;;;5022005;28;20451;-82
2023/09/05 05:24:51;;;;;;;5.53;2.50;;;17.80;87.50;;;;;;5022300;28;20075;-82
2023/09/05 05:27:17;;;;;;;5.22;1.85;;;17.80;87.40;;;;;;5019309;28;20081;-82
2023/09/05 05:29:43;;;;;;;3.83;2.03;;;17.90;87.40;;;;;;5013098;28;20021;-82
2023/09/05 05:32:09;;;;;;;6.47;2.03;;;17.90;87.30;;;;;;5013920;28;20032;-81
2023/09/05 05:34:34;;;;;;;3.47;1.70;;;17.90;87.90;;;;;;5031445;28;20039;-81
2023/09/05 05:37:00;;;;;;;3.78;2.15;;;17.90;87.20;;;;;;5033160;28;20018;-81
2023/09/05 05:39:26;;;;;;;4.00;1.77;;;17.90;87.20;;;;;;5033533;28;20030;-81
2023/09/05 05:41:51;;;;;;;4.63;2.08;;;17.90;87.20;;;;;;5033234;28;20059;-81
2023/09/05 05:44:17;;;;;;;3.65;1.92;;;17.90;87.30;;;;;;5032893;28;20038;-81
2023/09/05 05:46:43;;;;;;;7.78;2.30;;;18.00;87.30;;;;;;5033763;28;20029;-80
2023/09/05 05:49:10;;;;;;;4.13;2.13;;;18.00;87.30;;;;;;5031381;28;20033;-80
2023/09/05 05:51:37;;;;;;;4.50;2.22;;;18.00;87.20;;;;;;5032107;28;20392;-80
2023/09/05 05:54:03;;;;;;;4.65;2.08;;;18.10;87.20;;;;;;5033324;28;20489;-81
2023/09/05 05:56:28;;;;;;;7.22;2.30;;;18.10;87.20;;;;;;5033345;28;20029;-80
2023/09/05 05:58:54;;;;;;;4.30;2.17;;;18.20;87.20;;;;;;5033573;28;20541;-80
2023/09/05 06:01:19;;;;;;;7.30;2.35;;;18.20;87.10;;;;;;5033282;28;20033;-80
2023/09/05 06:03:46;;;;;;;4.00;2.30;;;18.20;87.00;;;;;;5033624;28;20045;-80
2023/09/05 06:06:12;;;;;;;2.83;1.52;;;18.30;87.00;;;;;;5032055;28;20041;-80
2023/09/05 06:08:37;;;;;;;3.92;2.08;;;18.30;86.90;;;;;;5033269;28;20033;-80
2023/09/05 06:11:03;;;;;;;3.40;1.60;;;18.30;86.80;;;;;;5033354;28;20026;-80
2023/09/05 06:13:29;;;;;;;4.43;2.50;;;18.40;86.70;;;;;;5032969;28;20101;-80
2023/09/05 06:15:55;;;;;;;5.25;2.00;;;18.40;86.60;;;;;;5033008;28;20025;-81
2023/09/05 06:18:20;;;;;;;4.47;1.98;;;18.30;86.50;;;;;;5032772;28;20079;-81
2023/09/05 06:20:46;;;;;;;3.65;1.70;;;18.50;86.50;;;;;;5032708;28;20205;-80
2023/09/05 06:23:12;;;;;;;6.07;2.00;;;18.50;86.40;;;;;;5032734;28;20046;-80
2023/09/05 06:25:38;;;;;;;3.97;2.08;;;18.60;86.30;;;;;;5032547;28;20132;-80
2023/09/05 06:28:04;;;;;;;3.40;1.67;;;18.50;86.10;;;;;;5032628;28;20132;-80
2023/09/05 06:30:30;;;;;;;4.50;1.92;;;18.60;86.10;;;;;;5032726;28;20017;-80
2023/09/05 06:32:56;;;;;;;3.60;1.75;;;18.70;86.00;;;;;;5032719;28;20025;-80
2023/09/05 06:35:21;;;;;;;4.65;1.70;;;18.70;85.90;;;;;;5032413;28;20439;-80
2023/09/05 06:37:52;;;;;;;4.47;1.80;;;18.80;85.90;;;;;;5032833;28;20036;-80
2023/09/05 06:40:18;;;;;;;3.38;1.25;;;18.80;85.70;;;;;;5032828;28;20419;-80
2023/09/05 06:42:44;;;;;;;3.53;1.80;;;18.80;85.60;;;;;;5032332;28;20026;-80
2023/09/05 06:45:11;;;;;;;4.70;1.75;;;18.80;85.40;;;;;;5032575;28;20037;-80
2023/09/05 06:47:36;;;;;;;3.90;1.95;;;18.90;85.40;;;;;;5032581;28;20017;-80
2023/09/05 06:50:06;;;;;;;5.22;1.90;;;18.90;85.20;;;;;;5032488;28;20040;-81
2023/09/05 06:52:32;;;;;;;4.00;1.75;;;18.90;85.10;;;;;;5032461;28;20376;-80
2023/09/05 06:54:58;;;;;;;3.88;1.90;;;19.00;85.00;;;;;;5032574;28;20025;-80
2023/09/05 06:57:25;;;;;;;4.82;1.77;;;19.10;84.90;;;;;;5032400;28;20026;-80
2023/09/05 06:59:50;;;;;;;3.22;1.73;;;19.10;84.80;;;;;;5032276;28;20719;-81
2023/09/05 07:02:16;;;;;;;4.28;1.38;;;19.10;84.60;;;;;;5032248;28;20076;-80
2023/09/05 07:04:42;;;;;;;4.68;1.40;;;19.10;84.50;;;;;;5032368;28;20041;-80
2023/09/05 07:07:08;;;;;;;3.47;1.35;;;19.20;84.30;;;;;;5031179;28;20029;-80
2023/09/05 07:09:34;;;;;;;7.25;1.27;;;19.30;84.20;;;;;;5032234;28;20079;-80
2023/09/05 07:12:00;;;;;;;2.80;1.27;;;19.30;83.90;;;;;;5032117;28;20245;-80
2023/09/05 07:14:26;;;;;;;5.47;1.90;;;19.30;83.70;;;;;;5032098;28;20076;-80
2023/09/05 07:16:51;;;;;;;3.15;1.58;;;19.40;83.50;;;;;;5032161;28;20026;-80
2023/09/05 07:19:18;;;;;;;2.85;1.52;;;19.40;83.40;;;;;;5031919;28;20033;-81
2023/09/05 07:21:44;;;;;;;4.30;1.75;;;19.50;83.30;;;;;;5031950;28;20050;-80
2023/09/05 07:24:13;;;;;;;5.00;1.60;;;19.50;83.10;;;;;;5031890;28;20038;-80
2023/09/05 07:26:39;;;;;;;2.92;1.45;;;19.50;82.90;;;;;;5031905;28;20499;-80
2023/09/05 07:29:05;;;;;;;3.92;2.13;;;19.60;82.90;;;;;;5032162;28;20022;-80
2023/09/05 07:31:31;;;;;;;3.10;1.63;;;19.70;82.80;;;;;;5031638;28;20021;-80
2023/09/05 07:34:00;;;;;;;3.33;1.48;;;19.70;82.70;;;;;;5031982;28;20025;-80
2023/09/05 07:36:27;;;;;;;4.53;1.90;;;19.70;82.70;;;;;;5031651;28;20489;-80
2023/09/05 07:38:53;;;;;;;3.30;1.50;;;19.70;82.60;;;;;;5031810;28;20052;-80
2023/09/05 07:41:19;;;;;;;3.28;1.33;;;19.80;82.50;;;;;;5031714;28;20034;-80
2023/09/05 07:43:45;;;;;;;3.13;1.60;;;19.90;82.60;;;;;;5030456;28;20038;-80
2023/09/05 07:46:11;;;;;;;3.53;1.48;;;20.00;82.50;;;;;;5031980;28;20040;-80
2023/09/05 07:48:37;;;;;;;2.42;1.23;;;20.00;82.50;;;;;;5031006;28;20331;-80
2023/09/05 07:51:05;;;;;;;3.08;1.20;;;20.00;82.40;;;;;;5031754;28;20477;-80
2023/09/05 07:53:32;;;;;;;3.47;1.85;;;20.00;82.30;;;;;;5031846;28;20089;-80
2023/09/05 07:55:58;;;;;;;5.03;1.83;;;20.10;82.40;;;;;;5030532;28;20028;-80
2023/09/05 07:58:26;;;;;;;4.78;1.73;;;20.10;82.30;;;;;;5031658;28;20480;-80
2023/09/05 08:00:53;;;;;;;3.75;1.30;;;20.20;82.30;;;;;;5031923;28;20025;-80
2023/09/05 08:03:22;;;;;;;2.83;1.30;;;20.20;82.20;;;;;;5031733;28;20558;-80
2023/09/05 08:05:50;;;;;;;3.20;1.23;;;20.30;82.10;;;;;;5031575;28;20030;-81
2023/09/05 08:08:15;;;;;;;2.90;1.45;;;20.30;81.90;;;;;;5031766;28;20025;-80
2023/09/05 08:10:42;;;;;;;3.55;1.60;;;20.40;81.80;;;;;;5031482;28;20056;-80
2023/09/05 08:13:10;;;;;;;3.47;1.48;;;20.50;81.60;;;;;;5031560;28;20131;-81
2023/09/05 08:15:36;;;;;;;3.20;1.30;;;20.50;81.50;;;;;;5031266;28;20129;-81
2023/09/05 08:18:03;;;;;;;4.82;1.35;;;20.60;81.20;;;;;;5031475;28;20030;-80
2023/09/05 08:20:29;;;;;;;4.30;1.40;;;20.60;81.00;;;;;;5031244;28;20503;-81
2023/09/05 08:22:55;;;;;;;2.88;1.17;;;20.70;80.90;;;;;;5031347;28;20049;-81
2023/09/05 08:25:24;;;;;;;5.30;1.58;;;20.80;80.80;;;;;;5031500;28;20033;-80
2023/09/05 08:27:50;;;;;;;2.90;1.50;;;20.80;80.70;;;;;;5031574;28;20615;-80
2023/09/05 08:30:16;;;;;;;3.58;1.48;;;20.90;80.60;;;;;;5031204;28;20026;-81
2023/09/05 08:32:43;;;;;;;3.75;1.67;;;20.90;80.40;;;;;;5031394;28;20396;-80
2023/09/05 08:35:09;;;;;;;3.50;1.58;;;21.00;80.30;;;;;;5031315;28;20026;-80
2023/09/05 08:37:35;;;;;;;4.10;1.40;;;21.00;80.30;;;;;;5031406;28;20025;-81
2023/09/05 08:40:01;;;;;;;5.70;1.52;;;21.10;80.20;;;;;;5031264;28;20026;-81
2023/09/05 08:42:31;;;;;;;3.88;1.98;;;21.20;80.20;;;;;;5031094;28;20026;-81
2023/09/05 08:44:59;;;;;;;3.17;1.17;;;21.20;80.00;;;;;;5031211;28;20037;-81
2023/09/05 08:47:28;;;;;;;4.25;1.73;;;21.30;79.90;;;;;;5031089;28;20054;-80
2023/09/05 08:49:54;;;;;;;4.72;1.48;;;21.40;80.00;;;;;;5031022;28;20036;-80
2023/09/05 08:52:22;;;;;;;4.38;1.42;;;21.40;79.90;;;;;;5031079;28;20110;-81
2023/09/05 08:54:48;;;;;;;4.38;1.60;;;21.40;79.80;;;;;;5031410;28;20478;-80
2023/09/05 08:57:17;;;;;;;6.25;1.40;;;21.50;79.60;;;;;;5031150;28;20036;-80
2023/09/05 08:59:43;;;;;;;2.58;1.15;;;21.60;79.70;;;;;;5032415;28;20030;-80
2023/09/05 09:02:14;;;;;;;3.25;1.38;;;21.60;79.50;;;;;;5034612;28;20036;-80
2023/09/05 09:04:51;;;;;;;4.03;1.60;;;21.70;79.40;;;;;;5034334;28;20033;-80
2023/09/05 09:07:16;;;;;;;3.92;1.10;;;21.70;79.30;;;;;;5034790;28;20041;-80
2023/09/05 09:09:42;;;;;;;3.58;1.60;;;21.80;79.20;;;;;;5033112;28;20063;-80
2023/09/05 09:12:09;;;;;;;5.10;1.38;;;21.90;79.10;;;;;;5034601;28;20176;-80
2023/09/05 09:14:35;;;;;;;5.22;1.67;;;21.90;78.90;;;;;;5034461;28;20021;-80
2023/09/05 09:17:02;;;;;;;5.38;1.58;;;22.00;78.70;;;;;;5034482;28;20030;-80
2023/09/05 09:19:31;;;;;;;6.45;1.33;;;22.00;78.70;;;;;;5034371;28;20030;-80
2023/09/05 09:22:02;;;;;;;3.40;1.38;;;22.10;78.70;;;;;;5033192;28;20409;-79
2023/09/05 09:24:35;;;;;;;6.20;1.27;;;22.20;78.60;;;;;;5035063;28;20056;-81
2023/09/05 09:27:03;;;;;;;4.18;1.42;;;22.20;78.50;;;;;;5034259;28;20473;-81
2023/09/05 09:29:30;;;;;;;5.45;1.15;;;22.30;78.40;;;;;;5034131;28;20654;-81
2023/09/05 09:32:03;;;;;;;5.85;1.08;;;22.40;78.30;;;;;;5034261;28;20049;-81
2023/09/05 09:34:31;;;;;;;7.15;1.30;;;22.40;78.00;;;;;;5032759;28;20029;-81
2023/09/05 09:36:58;;;;;;;3.75;1.10;;;22.50;77.70;;;;;;5034189;28;20091;-81
2023/09/05 09:39:24;;;;;;;5.03;1.20;;;22.60;77.60;;;;;;5033969;28;20136;-80
2023/09/05 09:41:49;;;;;;;2.42;1.00;;;22.60;77.30;;;;;;5033966;28;20029;-81
2023/09/05 09:44:25;;;;;;;3.33;1.15;;;22.80;77.20;;;;;;5033631;28;20033;-81
2023/09/05 09:46:52;;;;;;;3.97;1.30;;;22.80;76.90;;;;;;5032360;28;20423;-81
2023/09/05 09:49:19;;;;;;;4.22;1.30;;;22.90;76.90;;;;;;5033894;28;20449;-81
2023/09/05 09:51:48;;;;;;;3.15;1.10;;;22.90;76.60;;;;;;5033781;28;20022;-81
2023/09/05 09:54:16;;;;;;;3.40;1.27;;;23.00;76.40;;;;;;5033722;28;20112;-81
2023/09/05 09:56:43;;;;;;;2.53;1.05;;;23.10;76.00;;;;;;5033496;28;20045;-81
2023/09/05 09:59:10;;;;;;;3.00;1.20;;;23.20;75.60;;;;;;5033636;28;20064;-81
2023/09/05 10:01:38;;;;;;;2.45;1.10;;;23.20;75.10;;;;;;5033640;28;20018;-81
2023/09/05 10:04:04;;;;;;;3.67;0.93;;;23.30;74.70;;;;;;5033541;28;20072;-81
2023/09/05 10:06:30;;;;;;;3.08;1.00;;;23.40;74.30;;;;;;5033537;28;20025;-81
2023/09/05 10:08:57;;;;;;;2.90;0.93;;;23.50;73.80;;;;;;5033320;28;20388;-81
2023/09/05 10:11:24;;;;;;;2.67;1.00;;;23.70;73.50;;;;;;5032771;28;20033;-81
2023/09/05 10:13:51;;;;;;;2.65;0.90;;;23.90;73.20;;;;;;5033117;28;20392;-81
2023/09/05 10:16:18;;;;;;;2.78;0.88;;;24.10;72.90;;;;;;5033195;28;20026;-81
2023/09/05 10:18:45;;;;;;;2.55;0.98;;;24.30;72.50;;;;;;5031975;28;20071;-81
2023/09/05 10:21:12;;;;;;;3.35;0.88;;;24.40;71.90;;;;;;5033192;28;20052;-81
2023/09/05 10:23:38;;;;;;;2.45;0.93;;;24.70;71.30;;;;;;5033193;28;20025;-81
2023/09/05 10:26:05;;;;;;;4.07;1.05;;;24.90;71.60;;;;;;5033112;28;20163;-81
2023/09/05 10:28:31;;;;;;;1.33;0.60;;;25.20;70.60;;;;;;5032981;28;20025;-81
2023/09/05 10:31:12;;;;;;;3.15;0.75;;;25.30;69.90;;;;;;5033247;28;20033;-81
2023/09/05 10:33:39;;;;;;;1.95;0.70;;;25.60;69.30;;;;;;5032836;28;20029;-81
2023/09/05 10:36:06;;;;;;;2.05;0.80;;;25.80;68.90;;;;;;5032988;28;20108;-81
2023/09/05 10:38:36;;;;;;;3.47;0.80;;;26.00;68.30;;;;;;5032830;28;20033;-82
2023/09/05 10:41:02;;;;;;;3.17;0.77;;;26.20;67.50;;;;;;5032777;28;20021;-81
2023/09/05 10:43:28;;;;;;;4.05;0.80;;;26.50;67.10;;;;;;5032642;28;20032;-81
2023/09/05 10:46:03;;;;;;;2.47;0.93;;;26.70;66.60;;;;;;5032373;28;20027;-81
2023/09/05 10:48:33;;;;;;;2.15;0.80;;;26.90;65.90;;;;;;5032593;28;20478;-81
2023/09/05 10:51:13;;;;;;;1.70;0.68;;;27.10;65.40;;;;;;5032562;28;20030;-81
2023/09/05 10:53:46;;;;;;;1.88;0.80;;;27.40;64.50;;;;;;5032826;28;20026;-81
2023/09/05 10:56:40;;;;;;;1.85;0.70;;;27.60;64.10;;;;;;5032638;28;20037;-82
2023/09/05 10:59:10;;;;;;;2.10;0.80;;;27.80;63.10;;;;;;5032841;28;20550;-81
2023/09/05 11:01:43;;;;;;;2.38;0.80;;;28.10;63.10;;;;;;5032300;28;20044;-81
2023/09/05 11:04:17;;;;;;;2.00;0.70;;;28.30;62.50;;;;;;5032515;28;20052;-81
2023/09/05 11:07:18;;;;;;;2.60;0.80;;;28.50;61.70;;;;;;5032535;28;20025;-81
2023/09/05 11:09:48;;;;;;;2.33;0.70;;;28.70;61.00;;;;;;5032196;28;20086;-81
2023/09/05 11:12:14;;;;;;;3.53;0.85;;;29.00;61.00;;;;;;5032630;28;20119;-81
2023/09/05 11:14:40;;;;;;;1.20;0.52;;;29.20;60.50;;;;;;5032167;28;20122;-81
2023/09/05 11:17:05;;;;;;;2.33;0.70;;;29.40;60.00;;;;;;5032490;28;20484;-81
2023/09/05 11:19:38;;;;;;;2.10;0.70;;;29.70;59.60;;;;;;5032493;28;20030;-81
2023/09/05 11:22:18;;;;;;;3.38;0.80;;;29.90;58.80;;;;;;5031410;28;20050;-81
2023/09/05 11:24:48;;;;;;;3.03;0.70;;;30.20;58.00;;;;;;5032267;28;20033;-81
2023/09/05 11:27:29;;;;;;;2.75;0.80;;;30.40;58.00;;;;;;5032158;28;20079;-82
2023/09/05 11:29:58;;;;;;;1.85;0.60;;;30.70;57.30;;;;;;5031978;28;20116;-81
2023/09/05 11:32:36;;;;;;;3.08;0.60;;;30.90;57.10;;;;;;5032197;28;20492;-82
2023/09/05 11:35:04;;;;;;;2.65;0.75;;;31.10;56.10;;;;;;5032065;28;20057;-81
2023/09/05 11:37:30;;;;;;;1.83;0.70;;;31.40;56.10;;;;;;5032065;28;20115;-81
2023/09/05 11:39:55;;;;;;;3.25;0.80;;;31.60;55.30;;;;;;5031921;28;20492;-82
2023/09/05 11:42:23;;;;;;;1.63;0.60;;;31.70;54.70;;;;;;5031828;28;20028;-82
2023/09/05 11:44:51;;;;;;;2.33;0.85;;;31.90;54.20;;;;;;5031781;28;20042;-81
2023/09/05 11:47:17;;;;;;;2.10;0.85;;;32.00;53.90;;;;;;5031727;28;20025;-82
2023/09/05 11:49:43;;;;;;;2.08;0.75;;;32.20;53.60;;;;;;5031162;28;20071;-82
2023/09/05 11:52:11;;;;;;;1.90;0.80;;;32.30;53.20;;;;;;5032030;28;20681;-81
2023/09/05 11:54:38;;;;;;;3.03;0.77;;;32.60;52.80;;;;;;5031683;28;20037;-82
2023/09/05 11:57:03;;;;;;;1.80;0.70;;;32.80;52.60;;;;;;5031526;28;20120;-82
2023/09/05 11:59:29;;;;;;;1.65;0.60;;;33.00;52.10;;;;;;5031618;28;20109;-82
2023/09/05 12:01:55;;;;;;;2.20;0.80;;;33.20;51.70;;;;;;5031537;28;20022;-81
2023/09/05 12:04:22;;;;;;;2.78;0.90;;;33.30;51.20;;;;;;5030295;28;20462;-81
2023/09/05 12:06:51;;;;;;;2.28;0.80;;;33.50;50.90;;;;;;5031548;28;20060;-81
2023/09/05 12:09:20;;;;;;;2.08;0.80;;;33.70;50.60;;;;;;5031708;28;20095;-82
2023/09/05 12:11:46;;;;;;;2.13;0.60;;;33.90;50.60;;;;;;5031611;28;20037;-81
2023/09/05 12:14:12;;;;;;;1.58;0.60;;;34.20;50.40;;;;;;5031375;28;20030;-81
2023/09/05 12:16:38;;;;;;;1.38;0.60;;;34.40;49.90;;;;;;5031351;28;20036;-82
2023/09/05 12:19:04;;;;;;;1.77;0.80;;;34.70;49.50;;;;;;5031069;28;20080;-81
2023/09/05 12:21:43;;;;;;;1.63;0.68;;;34.90;49.10;;;;;;5031197;28;20053;-82
2023/09/05 12:24:23;;;;;;;3.22;0.65;;;35.10;48.80;;;;;;5031320;28;20042;-81
2023/09/05 12:26:49;;;;;;;2.13;0.85;;;35.30;48.10;;;;;;5031623;28;20025;-82
2023/09/05 12:29:21;;;;;;;3.80;0.70;;;35.60;48.90;;;;;;5031373;28;20033;-82
2023/09/05 12:31:48;;;;;;;1.77;0.70;;;35.70;48.00;;;;;;5031541;28;20048;-82
2023/09/05 12:34:14;;;;;;;3.28;1.00;;;35.90;47.90;;;;;;5033461;28;20026;-82
2023/09/05 12:36:40;;;;;;;1.45;0.60;;;36.10;47.60;;;;;;5035332;28;20036;-81
2023/09/05 12:39:05;;;;;;;2.30;0.73;;;36.30;47.10;;;;;;5035176;28;20529;-81
2023/09/05 12:41:31;;;;;;;2.22;0.70;;;36.50;47.40;;;;;;5034916;28;20539;-81
2023/09/05 12:43:58;;;;;;;1.20;0.63;;;36.70;46.50;;;;;;5034909;28;20041;-82
2023/09/05 12:46:24;;;;;;;4.53;0.82;;;36.90;46.30;;;;;;5033506;28;20369;-82
2023/09/05 12:48:53;;;;;;;4.72;0.93;;;37.10;46.10;;;;;;5034862;28;20030;-81